sensor_id;sensor_type;location;lat;lon;timestamp;temperature;humidity
65378;SHT31;51982;51.042;13.806;2023-07-28T00:00:03;20.32;84.75
65378;SHT31;51982;51.042;13.806;2023-07-28T00:02:29;20.33;84.75
65378;SHT31;51982;51.042;13.806;2023-07-28T00:04:54;20.33;84.61
65378;SHT31;51982;51.042;13.806;2023-07-28T00:07:20;20.35;84.59
65378;SHT31;51982;51.042;13.806;2023-07-28T00:09:45;20.30;84.70
65378;SHT31;51982;51.042;13.806;2023-07-28T00:12:10;20.32;84.79
65378;SHT31;51982;51.042;13.806;2023-07-28T00:14:35;20.32;84.79
65378;SHT31;51982;51.042;13.806;2023-07-28T00:17:01;20.33;84.75
65378;SHT31;51982;51.042;13.806;2023-07-28T00:19:26;20.38;84.80
65378;SHT31;51982;51.042;13.806;2023-07-28T00:21:52;20.38;84.80
65378;SHT31;51982;51.042;13.806;2023-07-28T00:24:17;20.36;84.83
65378;SHT31;51982;51.042;13.806;2023-07-28T00:26:43;20.36;84.83
65378;SHT31;51982;51.042;13.806;2023-07-28T00:29:09;20.33;84.83
65378;SHT31;51982;51.042;13.806;2023-07-28T00:31:35;20.38;84.86
65378;SHT31;51982;51.042;13.806;2023-07-28T00:34:01;20.35;84.84
65378;SHT31;51982;51.042;13.806;2023-07-28T00:36:27;20.40;84.88
65378;SHT31;51982;51.042;13.806;2023-07-28T00:38:52;20.36;84.88
65378;SHT31;51982;51.042;13.806;2023-07-28T00:41:18;20.38;84.96
65378;SHT31;51982;51.042;13.806;2023-07-28T00:43:43;20.35;84.97
65378;SHT31;51982;51.042;13.806;2023-07-28T00:46:10;20.36;84.93
65378;SHT31;51982;51.042;13.806;2023-07-28T00:48:35;20.38;84.85
65378;SHT31;51982;51.042;13.806;2023-07-28T00:51:01;20.38;84.88
65378;SHT31;51982;51.042;13.806;2023-07-28T00:53:27;20.40;84.94
65378;SHT31;51982;51.042;13.806;2023-07-28T00:55:52;20.40;84.97
65378;SHT31;51982;51.042;13.806;2023-07-28T00:58:17;20.40;84.91
65378;SHT31;51982;51.042;13.806;2023-07-28T01:00:43;20.40;84.96
65378;SHT31;51982;51.042;13.806;2023-07-28T01:03:08;20.40;84.95
65378;SHT31;51982;51.042;13.806;2023-07-28T01:05:44;20.40;84.86
65378;SHT31;51982;51.042;13.806;2023-07-28T01:11:10;20.42;84.98
65378;SHT31;51982;51.042;13.806;2023-07-28T01:13:35;20.40;84.99
65378;SHT31;51982;51.042;13.806;2023-07-28T01:16:00;20.39;85.06
65378;SHT31;51982;51.042;13.806;2023-07-28T01:18:27;20.38;85.07
65378;SHT31;51982;51.042;13.806;2023-07-28T01:20:56;20.40;84.82
65378;SHT31;51982;51.042;13.806;2023-07-28T01:24:19;20.42;84.81
65378;SHT31;51982;51.042;13.806;2023-07-28T01:26:30;20.42;84.91
65378;SHT31;51982;51.042;13.806;2023-07-28T01:28:56;20.42;85.03
65378;SHT31;51982;51.042;13.806;2023-07-28T01:31:22;20.39;85.03
65378;SHT31;51982;51.042;13.806;2023-07-28T01:33:47;20.35;85.05
65378;SHT31;51982;51.042;13.806;2023-07-28T01:36:12;20.38;85.08
65378;SHT31;51982;51.042;13.806;2023-07-28T01:38:37;20.33;85.08
65378;SHT31;51982;51.042;13.806;2023-07-28T01:41:03;20.36;85.12
65378;SHT31;51982;51.042;13.806;2023-07-28T01:43:28;20.39;85.18
65378;SHT31;51982;51.042;13.806;2023-07-28T01:45:53;20.40;85.23
65378;SHT31;51982;51.042;13.806;2023-07-28T01:48:19;20.39;85.30
65378;SHT31;51982;51.042;13.806;2023-07-28T01:50:46;20.38;85.35
65378;SHT31;51982;51.042;13.806;2023-07-28T01:53:12;20.39;85.41
65378;SHT31;51982;51.042;13.806;2023-07-28T01:55:37;20.38;85.44
65378;SHT31;51982;51.042;13.806;2023-07-28T01:58:02;20.33;85.58
65378;SHT31;51982;51.042;13.806;2023-07-28T02:00:28;20.35;85.67
65378;SHT31;51982;51.042;13.806;2023-07-28T02:02:53;20.33;85.60
65378;SHT31;51982;51.042;13.806;2023-07-28T02:05:19;20.33;85.61
65378;SHT31;51982;51.042;13.806;2023-07-28T02:07:45;20.35;85.67
65378;SHT31;51982;51.042;13.806;2023-07-28T02:10:11;20.35;85.68
65378;SHT31;51982;51.042;13.806;2023-07-28T02:12:39;20.33;85.68
65378;SHT31;51982;51.042;13.806;2023-07-28T02:15:06;20.29;85.64
65378;SHT31;51982;51.042;13.806;2023-07-28T02:17:31;20.33;85.69
65378;SHT31;51982;51.042;13.806;2023-07-28T02:19:56;20.35;85.82
65378;SHT31;51982;51.042;13.806;2023-07-28T02:22:22;20.35;85.83
65378;SHT31;51982;51.042;13.806;2023-07-28T02:24:47;20.32;85.80
65378;SHT31;51982;51.042;13.806;2023-07-28T02:27:12;20.32;85.89
65378;SHT31;51982;51.042;13.806;2023-07-28T02:29:37;20.35;85.94
65378;SHT31;51982;51.042;13.806;2023-07-28T02:32:03;20.29;86.01
65378;SHT31;51982;51.042;13.806;2023-07-28T02:34:28;20.32;86.01
65378;SHT31;51982;51.042;13.806;2023-07-28T02:36:53;20.29;86.03
65378;SHT31;51982;51.042;13.806;2023-07-28T02:39:19;20.28;86.11
65378;SHT31;51982;51.042;13.806;2023-07-28T02:41:45;20.26;86.06
65378;SHT31;51982;51.042;13.806;2023-07-28T02:44:10;20.22;86.01
65378;SHT31;51982;51.042;13.806;2023-07-28T02:46:36;20.19;86.03
65378;SHT31;51982;51.042;13.806;2023-07-28T02:49:02;20.22;86.05
65378;SHT31;51982;51.042;13.806;2023-07-28T02:51:29;20.24;86.11
65378;SHT31;51982;51.042;13.806;2023-07-28T02:53:54;20.22;86.14
65378;SHT31;51982;51.042;13.806;2023-07-28T02:56:19;20.15;86.15
65378;SHT31;51982;51.042;13.806;2023-07-28T02:58:45;20.17;86.13
65378;SHT31;51982;51.042;13.806;2023-07-28T03:01:11;20.18;86.14
65378;SHT31;51982;51.042;13.806;2023-07-28T03:03:36;20.19;86.20
65378;SHT31;51982;51.042;13.806;2023-07-28T03:06:01;20.19;86.21
65378;SHT31;51982;51.042;13.806;2023-07-28T03:08:26;20.21;86.17
65378;SHT31;51982;51.042;13.806;2023-07-28T03:10:56;20.21;86.14
65378;SHT31;51982;51.042;13.806;2023-07-28T03:13:22;20.22;86.13
65378;SHT31;51982;51.042;13.806;2023-07-28T03:15:47;20.19;86.22
65378;SHT31;51982;51.042;13.806;2023-07-28T03:18:12;20.21;86.21
65378;SHT31;51982;51.042;13.806;2023-07-28T03:20:37;20.22;86.15
65378;SHT31;51982;51.042;13.806;2023-07-28T03:23:03;20.17;86.25
65378;SHT31;51982;51.042;13.806;2023-07-28T03:25:28;20.15;86.30
65378;SHT31;51982;51.042;13.806;2023-07-28T03:27:53;20.19;86.31
65378;SHT31;51982;51.042;13.806;2023-07-28T03:30:18;20.19;86.24
65378;SHT31;51982;51.042;13.806;2023-07-28T03:32:44;20.22;86.36
65378;SHT31;51982;51.042;13.806;2023-07-28T03:35:09;20.21;86.30
65378;SHT31;51982;51.042;13.806;2023-07-28T03:37:34;20.22;86.36
65378;SHT31;51982;51.042;13.806;2023-07-28T03:40:00;20.22;86.35
65378;SHT31;51982;51.042;13.806;2023-07-28T03:42:25;20.22;86.39
65378;SHT31;51982;51.042;13.806;2023-07-28T03:44:51;20.22;86.44
65378;SHT31;51982;51.042;13.806;2023-07-28T03:47:16;20.22;86.49
65378;SHT31;51982;51.042;13.806;2023-07-28T03:49:41;20.19;86.48
65378;SHT31;51982;51.042;13.806;2023-07-28T03:52:06;20.21;86.54
65378;SHT31;51982;51.042;13.806;2023-07-28T03:54:32;20.18;86.58
65378;SHT31;51982;51.042;13.806;2023-07-28T03:56:57;20.19;86.55
65378;SHT31;51982;51.042;13.806;2023-07-28T03:59:22;20.21;86.57
65378;SHT31;51982;51.042;13.806;2023-07-28T04:01:47;20.18;86.51
65378;SHT31;51982;51.042;13.806;2023-07-28T04:04:13;20.18;86.45
65378;SHT31;51982;51.042;13.806;2023-07-28T04:06:40;20.17;86.32
65378;SHT31;51982;51.042;13.806;2023-07-28T04:09:06;20.18;86.32
65378;SHT31;51982;51.042;13.806;2023-07-28T04:11:32;20.15;86.36
65378;SHT31;51982;51.042;13.806;2023-07-28T04:13:57;20.18;86.37
65378;SHT31;51982;51.042;13.806;2023-07-28T04:16:22;20.15;86.38
65378;SHT31;51982;51.042;13.806;2023-07-28T04:18:47;20.18;86.44
65378;SHT31;51982;51.042;13.806;2023-07-28T04:21:13;20.17;86.45
65378;SHT31;51982;51.042;13.806;2023-07-28T04:23:38;20.21;86.46
65378;SHT31;51982;51.042;13.806;2023-07-28T04:26:03;20.19;86.44
65378;SHT31;51982;51.042;13.806;2023-07-28T04:28:28;20.19;86.47
65378;SHT31;51982;51.042;13.806;2023-07-28T04:30:54;20.22;86.43
65378;SHT31;51982;51.042;13.806;2023-07-28T04:33:19;20.24;86.36
65378;SHT31;51982;51.042;13.806;2023-07-28T04:35:44;20.25;86.34
65378;SHT31;51982;51.042;13.806;2023-07-28T04:38:09;20.24;86.38
65378;SHT31;51982;51.042;13.806;2023-07-28T04:40:35;20.22;86.41
65378;SHT31;51982;51.042;13.806;2023-07-28T04:43:00;20.28;86.41
65378;SHT31;51982;51.042;13.806;2023-07-28T04:45:25;20.25;86.37
65378;SHT31;51982;51.042;13.806;2023-07-28T04:47:50;20.26;86.38
65378;SHT31;51982;51.042;13.806;2023-07-28T04:50:16;20.22;86.44
65378;SHT31;51982;51.042;13.806;2023-07-28T04:52:41;20.28;86.41
65378;SHT31;51982;51.042;13.806;2023-07-28T04:55:06;20.26;86.40
65378;SHT31;51982;51.042;13.806;2023-07-28T04:57:32;20.26;86.38
65378;SHT31;51982;51.042;13.806;2023-07-28T04:59:57;20.30;86.37
65378;SHT31;51982;51.042;13.806;2023-07-28T05:02:22;20.29;86.36
65378;SHT31;51982;51.042;13.806;2023-07-28T05:04:47;20.29;86.30
65378;SHT31;51982;51.042;13.806;2023-07-28T05:07:13;20.29;86.27
65378;SHT31;51982;51.042;13.806;2023-07-28T05:09:38;20.28;86.24
65378;SHT31;51982;51.042;13.806;2023-07-28T05:12:03;20.29;86.25
65378;SHT31;51982;51.042;13.806;2023-07-28T05:14:29;20.32;86.25
65378;SHT31;51982;51.042;13.806;2023-07-28T05:16:54;20.32;86.24
65378;SHT31;51982;51.042;13.806;2023-07-28T05:19:19;20.30;85.98
65378;SHT31;51982;51.042;13.806;2023-07-28T05:21:45;20.30;85.97
65378;SHT31;51982;51.042;13.806;2023-07-28T05:24:10;20.33;85.93
65378;SHT31;51982;51.042;13.806;2023-07-28T05:26:35;20.38;85.94
65378;SHT31;51982;51.042;13.806;2023-07-28T05:29:00;20.38;85.95
65378;SHT31;51982;51.042;13.806;2023-07-28T05:31:25;20.39;85.99
65378;SHT31;51982;51.042;13.806;2023-07-28T05:33:51;20.40;86.02
65378;SHT31;51982;51.042;13.806;2023-07-28T05:36:18;20.40;86.03
65378;SHT31;51982;51.042;13.806;2023-07-28T05:38:44;20.43;85.96
65378;SHT31;51982;51.042;13.806;2023-07-28T05:41:09;20.48;85.98
65378;SHT31;51982;51.042;13.806;2023-07-28T05:43:34;20.48;85.90
65378;SHT31;51982;51.042;13.806;2023-07-28T05:46:00;20.45;85.81
65378;SHT31;51982;51.042;13.806;2023-07-28T05:48:26;20.46;85.67
65378;SHT31;51982;51.042;13.806;2023-07-28T05:50:51;20.48;85.74
65378;SHT31;51982;51.042;13.806;2023-07-28T05:53:19;20.49;85.70
65378;SHT31;51982;51.042;13.806;2023-07-28T05:55:44;20.50;85.63
65378;SHT31;51982;51.042;13.806;2023-07-28T05:58:10;20.50;85.58
65378;SHT31;51982;51.042;13.806;2023-07-28T06:00:39;20.55;85.70
65378;SHT31;51982;51.042;13.806;2023-07-28T06:03:05;20.56;85.58
65378;SHT31;51982;51.042;13.806;2023-07-28T06:05:30;20.56;85.49
65378;SHT31;51982;51.042;13.806;2023-07-28T06:07:55;20.56;85.37
65378;SHT31;51982;51.042;13.806;2023-07-28T06:10:21;20.59;85.42
65378;SHT31;51982;51.042;13.806;2023-07-28T06:12:46;20.59;85.34
65378;SHT31;51982;51.042;13.806;2023-07-28T06:15:11;20.65;85.43
65378;SHT31;51982;51.042;13.806;2023-07-28T06:17:36;20.65;85.33
65378;SHT31;51982;51.042;13.806;2023-07-28T06:20:02;20.68;85.21
65378;SHT31;51982;51.042;13.806;2023-07-28T06:22:27;20.70;85.13
65378;SHT31;51982;51.042;13.806;2023-07-28T06:24:52;20.73;85.11
65378;SHT31;51982;51.042;13.806;2023-07-28T06:27:17;20.72;85.00
65378;SHT31;51982;51.042;13.806;2023-07-28T06:29:43;20.70;85.00
65378;SHT31;51982;51.042;13.806;2023-07-28T06:32:09;20.76;85.03
65378;SHT31;51982;51.042;13.806;2023-07-28T06:34:34;20.75;85.07
65378;SHT31;51982;51.042;13.806;2023-07-28T06:36:59;20.76;85.06
65378;SHT31;51982;51.042;13.806;2023-07-28T06:39:24;20.77;85.11
65378;SHT31;51982;51.042;13.806;2023-07-28T06:41:50;20.82;85.12
65378;SHT31;51982;51.042;13.806;2023-07-28T06:44:16;20.83;84.97
65378;SHT31;51982;51.042;13.806;2023-07-28T06:46:41;20.89;85.03
65378;SHT31;51982;51.042;13.806;2023-07-28T06:49:06;20.92;85.07
65378;SHT31;51982;51.042;13.806;2023-07-28T06:51:31;20.99;84.41
65378;SHT31;51982;51.042;13.806;2023-07-28T06:53:57;21.07;84.75
65378;SHT31;51982;51.042;13.806;2023-07-28T06:56:22;21.19;84.54
65378;SHT31;51982;51.042;13.806;2023-07-28T06:58:48;21.30;84.61
65378;SHT31;51982;51.042;13.806;2023-07-28T07:01:13;21.38;84.42
65378;SHT31;51982;51.042;13.806;2023-07-28T07:03:38;21.43;84.22
65378;SHT31;51982;51.042;13.806;2023-07-28T07:06:03;21.45;84.04
65378;SHT31;51982;51.042;13.806;2023-07-28T07:08:28;21.50;83.92
65378;SHT31;51982;51.042;13.806;2023-07-28T07:10:54;21.47;83.90
65378;SHT31;51982;51.042;13.806;2023-07-28T07:13:19;21.47;83.83
65378;SHT31;51982;51.042;13.806;2023-07-28T07:15:45;21.50;83.84
65378;SHT31;51982;51.042;13.806;2023-07-28T07:18:11;21.48;83.79
65378;SHT31;51982;51.042;13.806;2023-07-28T07:20:37;21.51;83.77
65378;SHT31;51982;51.042;13.806;2023-07-28T07:23:04;21.50;83.43
65378;SHT31;51982;51.042;13.806;2023-07-28T07:25:29;21.51;83.43
65378;SHT31;51982;51.042;13.806;2023-07-28T07:27:54;21.55;83.50
65378;SHT31;51982;51.042;13.806;2023-07-28T07:30:20;21.51;83.35
65378;SHT31;51982;51.042;13.806;2023-07-28T07:32:46;21.55;83.23
65378;SHT31;51982;51.042;13.806;2023-07-28T07:35:11;21.64;83.34
65378;SHT31;51982;51.042;13.806;2023-07-28T07:37:37;21.65;83.34
65378;SHT31;51982;51.042;13.806;2023-07-28T07:40:03;21.66;83.36
65378;SHT31;51982;51.042;13.806;2023-07-28T07:42:40;21.65;83.40
65378;SHT31;51982;51.042;13.806;2023-07-28T07:45:08;21.68;83.33
65378;SHT31;51982;51.042;13.806;2023-07-28T07:47:34;21.68;83.17
65378;SHT31;51982;51.042;13.806;2023-07-28T07:49:59;21.75;83.22
65378;SHT31;51982;51.042;13.806;2023-07-28T07:52:25;21.82;83.20
65378;SHT31;51982;51.042;13.806;2023-07-28T07:54:51;21.86;83.09
65378;SHT31;51982;51.042;13.806;2023-07-28T07:57:16;21.88;82.75
65378;SHT31;51982;51.042;13.806;2023-07-28T07:59:41;21.95;82.78
65378;SHT31;51982;51.042;13.806;2023-07-28T08:02:06;22.03;82.69
65378;SHT31;51982;51.042;13.806;2023-07-28T08:04:32;22.08;82.32
65378;SHT31;51982;51.042;13.806;2023-07-28T08:06:57;22.10;82.28
65378;SHT31;51982;51.042;13.806;2023-07-28T08:09:22;22.13;82.08
65378;SHT31;51982;51.042;13.806;2023-07-28T08:11:47;22.17;82.19
65378;SHT31;51982;51.042;13.806;2023-07-28T08:14:13;22.23;82.02
65378;SHT31;51982;51.042;13.806;2023-07-28T08:16:39;22.23;82.07
65378;SHT31;51982;51.042;13.806;2023-07-28T08:19:04;22.26;82.13
65378;SHT31;51982;51.042;13.806;2023-07-28T08:21:29;22.29;82.16
65378;SHT31;51982;51.042;13.806;2023-07-28T08:23:56;22.35;81.81
65378;SHT31;51982;51.042;13.806;2023-07-28T08:26:21;22.42;81.88
65378;SHT31;51982;51.042;13.806;2023-07-28T08:28:46;22.55;81.97
65378;SHT31;51982;51.042;13.806;2023-07-28T08:31:12;22.61;81.53
65378;SHT31;51982;51.042;13.806;2023-07-28T08:33:37;22.70;81.32
65378;SHT31;51982;51.042;13.806;2023-07-28T08:36:02;22.73;81.16
65378;SHT31;51982;51.042;13.806;2023-07-28T08:38:28;22.73;81.11
65378;SHT31;51982;51.042;13.806;2023-07-28T08:40:53;22.76;80.72
65378;SHT31;51982;51.042;13.806;2023-07-28T08:43:19;22.73;80.91
65378;SHT31;51982;51.042;13.806;2023-07-28T08:45:44;22.71;80.93
65378;SHT31;51982;51.042;13.806;2023-07-28T08:48:09;22.59;80.58
65378;SHT31;51982;51.042;13.806;2023-07-28T08:50:34;22.50;80.53
65378;SHT31;51982;51.042;13.806;2023-07-28T08:53:00;22.52;80.60
65378;SHT31;51982;51.042;13.806;2023-07-28T08:55:25;22.50;80.63
65378;SHT31;51982;51.042;13.806;2023-07-28T08:57:50;22.49;80.65
65378;SHT31;51982;51.042;13.806;2023-07-28T09:00:16;22.46;80.54
65378;SHT31;51982;51.042;13.806;2023-07-28T09:02:43;22.47;80.87
65378;SHT31;51982;51.042;13.806;2023-07-28T09:05:17;22.49;80.85
65378;SHT31;51982;51.042;13.806;2023-07-28T09:07:43;22.50;80.81
65378;SHT31;51982;51.042;13.806;2023-07-28T09:10:08;22.52;80.86
65378;SHT31;51982;51.042;13.806;2023-07-28T09:12:34;22.52;80.80
65378;SHT31;51982;51.042;13.806;2023-07-28T09:14:59;22.50;80.86
65378;SHT31;51982;51.042;13.806;2023-07-28T09:17:25;22.50;80.72
65378;SHT31;51982;51.042;13.806;2023-07-28T09:19:54;22.53;80.83
65378;SHT31;51982;51.042;13.806;2023-07-28T09:22:20;22.55;80.58
65378;SHT31;51982;51.042;13.806;2023-07-28T09:24:46;22.59;80.66
65378;SHT31;51982;51.042;13.806;2023-07-28T09:27:26;22.55;80.76
65378;SHT31;51982;51.042;13.806;2023-07-28T09:29:52;22.55;80.84
65378;SHT31;51982;51.042;13.806;2023-07-28T09:32:30;22.55;80.76
65378;SHT31;51982;51.042;13.806;2023-07-28T09:35:12;22.60;80.84
65378;SHT31;51982;51.042;13.806;2023-07-28T09:37:39;22.68;80.81
65378;SHT31;51982;51.042;13.806;2023-07-28T09:40:07;22.76;80.72
65378;SHT31;51982;51.042;13.806;2023-07-28T09:42:35;22.83;80.74
65378;SHT31;51982;51.042;13.806;2023-07-28T09:45:01;22.87;80.69
65378;SHT31;51982;51.042;13.806;2023-07-28T09:47:27;22.87;80.71
65378;SHT31;51982;51.042;13.806;2023-07-28T09:49:56;22.84;80.64
65378;SHT31;51982;51.042;13.806;2023-07-28T09:52:24;22.91;80.71
65378;SHT31;51982;51.042;13.806;2023-07-28T09:54:55;22.93;80.79
65378;SHT31;51982;51.042;13.806;2023-07-28T09:57:23;23.01;80.73
65378;SHT31;51982;51.042;13.806;2023-07-28T09:59:52;23.12;80.72
65378;SHT31;51982;51.042;13.806;2023-07-28T10:02:19;23.22;80.55
65378;SHT31;51982;51.042;13.806;2023-07-28T10:04:45;23.28;80.34
65378;SHT31;51982;51.042;13.806;2023-07-28T10:07:11;23.31;80.05
65378;SHT31;51982;51.042;13.806;2023-07-28T10:09:38;23.41;79.88
65378;SHT31;51982;51.042;13.806;2023-07-28T10:12:04;23.45;80.06
65378;SHT31;51982;51.042;13.806;2023-07-28T10:14:36;23.51;79.83
65378;SHT31;51982;51.042;13.806;2023-07-28T10:17:05;23.52;79.38
65378;SHT31;51982;51.042;13.806;2023-07-28T10:19:35;23.54;79.11
65378;SHT31;51982;51.042;13.806;2023-07-28T10:22:11;23.62;79.01
65378;SHT31;51982;51.042;13.806;2023-07-28T10:25:00;23.57;78.29
65378;SHT31;51982;51.042;13.806;2023-07-28T10:27:38;23.69;78.62
65378;SHT31;51982;51.042;13.806;2023-07-28T10:30:13;23.76;78.57
65378;SHT31;51982;51.042;13.806;2023-07-28T10:32:48;23.88;78.67
65378;SHT31;51982;51.042;13.806;2023-07-28T10:37:45;23.88;78.08
65378;SHT31;51982;51.042;13.806;2023-07-28T10:42:49;23.96;78.00
65378;SHT31;51982;51.042;13.806;2023-07-28T10:45:15;23.99;78.09
65378;SHT31;51982;51.042;13.806;2023-07-28T10:47:41;24.02;78.40
65378;SHT31;51982;51.042;13.806;2023-07-28T10:50:09;24.03;78.50
65378;SHT31;51982;51.042;13.806;2023-07-28T10:52:34;24.08;78.53
65378;SHT31;51982;51.042;13.806;2023-07-28T10:54:59;24.13;78.49
65378;SHT31;51982;51.042;13.806;2023-07-28T10:57:25;24.14;78.41
65378;SHT31;51982;51.042;13.806;2023-07-28T10:59:51;24.16;78.14
65378;SHT31;51982;51.042;13.806;2023-07-28T11:02:16;24.17;77.80
65378;SHT31;51982;51.042;13.806;2023-07-28T11:04:46;24.16;78.11
65378;SHT31;51982;51.042;13.806;2023-07-28T11:07:12;24.14;77.80
65378;SHT31;51982;51.042;13.806;2023-07-28T11:09:38;24.16;78.03
65378;SHT31;51982;51.042;13.806;2023-07-28T11:12:04;24.12;77.29
65378;SHT31;51982;51.042;13.806;2023-07-28T11:14:29;24.12;77.01
65378;SHT31;51982;51.042;13.806;2023-07-28T11:16:54;24.14;76.58
65378;SHT31;51982;51.042;13.806;2023-07-28T11:19:20;24.16;76.60
65378;SHT31;51982;51.042;13.806;2023-07-28T11:21:49;24.21;76.73
65378;SHT31;51982;51.042;13.806;2023-07-28T11:24:21;24.26;76.39
65378;SHT31;51982;51.042;13.806;2023-07-28T11:26:46;24.30;76.35
65378;SHT31;51982;51.042;13.806;2023-07-28T11:29:12;24.37;76.12
65378;SHT31;51982;51.042;13.806;2023-07-28T11:31:37;24.41;75.74
65378;SHT31;51982;51.042;13.806;2023-07-28T11:34:13;24.44;75.15
65378;SHT31;51982;51.042;13.806;2023-07-28T11:36:38;24.50;74.88
65378;SHT31;51982;51.042;13.806;2023-07-28T11:39:03;24.59;74.85
65378;SHT31;51982;51.042;13.806;2023-07-28T11:41:30;24.68;75.00
65378;SHT31;51982;51.042;13.806;2023-07-28T11:43:56;24.71;74.56
65378;SHT31;51982;51.042;13.806;2023-07-28T11:46:34;24.74;74.40
65378;SHT31;51982;51.042;13.806;2023-07-28T11:49:10;24.74;74.59
65378;SHT31;51982;51.042;13.806;2023-07-28T11:51:38;24.80;74.65
65378;SHT31;51982;51.042;13.806;2023-07-28T11:54:04;24.80;74.67
65378;SHT31;51982;51.042;13.806;2023-07-28T11:56:31;24.80;74.56
65378;SHT31;51982;51.042;13.806;2023-07-28T11:58:56;24.81;74.16
65378;SHT31;51982;51.042;13.806;2023-07-28T12:01:21;24.88;73.77
65378;SHT31;51982;51.042;13.806;2023-07-28T12:03:47;24.92;72.86
65378;SHT31;51982;51.042;13.806;2023-07-28T12:06:12;25.01;72.70
65378;SHT31;51982;51.042;13.806;2023-07-28T12:08:37;25.08;72.92
65378;SHT31;51982;51.042;13.806;2023-07-28T12:11:03;25.14;72.70
65378;SHT31;51982;51.042;13.806;2023-07-28T12:13:29;25.08;72.39
65378;SHT31;51982;51.042;13.806;2023-07-28T12:15:54;24.99;72.22
65378;SHT31;51982;51.042;13.806;2023-07-28T12:18:19;24.95;72.54
65378;SHT31;51982;51.042;13.806;2023-07-28T12:20:46;24.94;72.67
65378;SHT31;51982;51.042;13.806;2023-07-28T12:23:22;24.94;73.14
65378;SHT31;51982;51.042;13.806;2023-07-28T12:25:48;24.95;73.70
65378;SHT31;51982;51.042;13.806;2023-07-28T12:28:13;24.96;73.69
65378;SHT31;51982;51.042;13.806;2023-07-28T12:30:39;24.96;73.55
65378;SHT31;51982;51.042;13.806;2023-07-28T12:33:05;24.96;73.62
65378;SHT31;51982;51.042;13.806;2023-07-28T12:35:32;25.02;73.81
65378;SHT31;51982;51.042;13.806;2023-07-28T12:38:00;25.08;73.76
65378;SHT31;51982;51.042;13.806;2023-07-28T12:40:26;25.10;73.99
65378;SHT31;51982;51.042;13.806;2023-07-28T12:42:52;25.12;74.19
65378;SHT31;51982;51.042;13.806;2023-07-28T12:45:18;25.18;73.84
65378;SHT31;51982;51.042;13.806;2023-07-28T12:47:43;25.19;73.31
65378;SHT31;51982;51.042;13.806;2023-07-28T12:50:09;25.19;73.21
65378;SHT31;51982;51.042;13.806;2023-07-28T12:52:35;25.22;73.52
65378;SHT31;51982;51.042;13.806;2023-07-28T12:55:01;25.25;73.48
65378;SHT31;51982;51.042;13.806;2023-07-28T12:57:26;25.29;72.87
65378;SHT31;51982;51.042;13.806;2023-07-28T12:59:51;25.32;72.96
65378;SHT31;51982;51.042;13.806;2023-07-28T13:02:17;25.35;73.03
65378;SHT31;51982;51.042;13.806;2023-07-28T13:04:42;25.36;72.72
65378;SHT31;51982;51.042;13.806;2023-07-28T13:07:08;25.35;72.65
65378;SHT31;51982;51.042;13.806;2023-07-28T13:09:33;25.29;72.54
65378;SHT31;51982;51.042;13.806;2023-07-28T13:11:58;25.28;72.88
65378;SHT31;51982;51.042;13.806;2023-07-28T13:14:24;25.29;73.04
65378;SHT31;51982;51.042;13.806;2023-07-28T13:16:49;25.28;73.23
65378;SHT31;51982;51.042;13.806;2023-07-28T13:19:15;25.26;73.35
65378;SHT31;51982;51.042;13.806;2023-07-28T13:21:41;25.25;73.15
65378;SHT31;51982;51.042;13.806;2023-07-28T13:24:06;25.25;73.15
65378;SHT31;51982;51.042;13.806;2023-07-28T13:26:31;25.26;73.12
65378;SHT31;51982;51.042;13.806;2023-07-28T13:28:56;25.26;73.10
65378;SHT31;51982;51.042;13.806;2023-07-28T13:31:23;25.29;73.27
65378;SHT31;51982;51.042;13.806;2023-07-28T13:33:49;25.31;73.28
65378;SHT31;51982;51.042;13.806;2023-07-28T13:36:14;25.31;73.47
65378;SHT31;51982;51.042;13.806;2023-07-28T13:38:39;25.35;73.39
65378;SHT31;51982;51.042;13.806;2023-07-28T13:41:06;25.36;73.28
65378;SHT31;51982;51.042;13.806;2023-07-28T13:43:35;25.38;73.07
65378;SHT31;51982;51.042;13.806;2023-07-28T13:46:02;25.36;71.51
65378;SHT31;51982;51.042;13.806;2023-07-28T13:48:27;25.45;72.09
65378;SHT31;51982;51.042;13.806;2023-07-28T13:50:53;25.49;72.36
65378;SHT31;51982;51.042;13.806;2023-07-28T13:53:18;25.49;71.82
65378;SHT31;51982;51.042;13.806;2023-07-28T13:55:43;25.55;71.95
65378;SHT31;51982;51.042;13.806;2023-07-28T13:58:08;25.58;72.19
65378;SHT31;51982;51.042;13.806;2023-07-28T14:00:34;25.67;72.38
65378;SHT31;51982;51.042;13.806;2023-07-28T14:02:59;25.70;72.35
65378;SHT31;51982;51.042;13.806;2023-07-28T14:05:24;25.76;72.41
65378;SHT31;51982;51.042;13.806;2023-07-28T14:07:49;25.79;72.57
65378;SHT31;51982;51.042;13.806;2023-07-28T14:10:15;25.79;71.80
65378;SHT31;51982;51.042;13.806;2023-07-28T14:12:40;25.83;71.90
65378;SHT31;51982;51.042;13.806;2023-07-28T14:15:07;25.87;71.82
65378;SHT31;51982;51.042;13.806;2023-07-28T14:17:33;25.93;71.77
65378;SHT31;51982;51.042;13.806;2023-07-28T14:19:58;25.97;71.56
65378;SHT31;51982;51.042;13.806;2023-07-28T14:22:23;25.96;71.42
65378;SHT31;51982;51.042;13.806;2023-07-28T14:24:49;25.93;71.20
65378;SHT31;51982;51.042;13.806;2023-07-28T14:27:14;25.92;70.57
65378;SHT31;51982;51.042;13.806;2023-07-28T14:29:39;25.89;70.42
65378;SHT31;51982;51.042;13.806;2023-07-28T14:32:05;25.87;70.41
65378;SHT31;51982;51.042;13.806;2023-07-28T14:34:30;25.87;70.82
65378;SHT31;51982;51.042;13.806;2023-07-28T14:36:55;25.90;71.04
65378;SHT31;51982;51.042;13.806;2023-07-28T14:39:20;25.87;70.98
65378;SHT31;51982;51.042;13.806;2023-07-28T14:41:46;25.92;70.84
65378;SHT31;51982;51.042;13.806;2023-07-28T14:44:11;25.93;70.87
65378;SHT31;51982;51.042;13.806;2023-07-28T14:46:36;25.94;70.77
65378;SHT31;51982;51.042;13.806;2023-07-28T14:49:01;26.00;70.74
65378;SHT31;51982;51.042;13.806;2023-07-28T14:51:27;26.07;70.70
65378;SHT31;51982;51.042;13.806;2023-07-28T14:53:52;26.14;70.32
65378;SHT31;51982;51.042;13.806;2023-07-28T14:56:18;26.16;70.21
65378;SHT31;51982;51.042;13.806;2023-07-28T14:58:45;26.21;70.24
65378;SHT31;51982;51.042;13.806;2023-07-28T15:01:10;26.20;70.33
65378;SHT31;51982;51.042;13.806;2023-07-28T15:03:36;26.18;70.40
65378;SHT31;51982;51.042;13.806;2023-07-28T15:06:02;26.13;70.51
65378;SHT31;51982;51.042;13.806;2023-07-28T15:08:28;26.10;70.37
65378;SHT31;51982;51.042;13.806;2023-07-28T15:10:53;25.98;70.44
65378;SHT31;51982;51.042;13.806;2023-07-28T15:13:19;25.93;71.11
65378;SHT31;51982;51.042;13.806;2023-07-28T15:15:45;25.90;72.32